createdAt,value
2016-08-20T00:00:06.333Z,0
2016-08-20T00:01:07.695Z,0
2016-08-20T00:02:08.370Z,0
2016-08-20T00:03:06.935Z,0
2016-08-20T00:04:08.320Z,0
2016-08-20T00:05:08.266Z,0
2016-08-20T00:06:07.539Z,0
2016-08-20T00:07:08.205Z,0
2016-08-20T00:08:07.475Z,0
2016-08-20T00:09:07.450Z,0
2016-08-20T00:10:08.113Z,0
2016-08-20T00:11:07.396Z,0
2016-08-20T00:12:08.054Z,0
2016-08-20T00:13:08.016Z,0
2016-08-20T00:14:05.914Z,0
2016-08-20T00:15:07.957Z,0
2016-08-20T00:16:07.937Z,0
2016-08-20T00:17:07.896Z,0
2016-08-20T00:18:07.868Z,0
2016-08-20T00:19:07.836Z,0
2016-08-20T00:20:07.116Z,0
2016-08-20T00:21:07.775Z,0
2016-08-20T00:22:07.792Z,0
2016-08-20T00:23:06.320Z,0
2016-08-20T00:24:07.700Z,0
2016-08-20T00:25:07.655Z,0
2016-08-20T00:26:06.221Z,0
2016-08-20T00:27:07.597Z,0
2016-08-20T00:28:07.562Z,0
2016-08-20T00:29:06.832Z,0
2016-08-20T00:30:07.500Z,0
2016-08-20T00:31:06.762Z,0
2016-08-20T00:32:06.743Z,0
2016-08-20T00:33:07.404Z,0
2016-08-20T00:34:06.683Z,0
2016-08-20T00:35:07.347Z,0
2016-08-20T00:36:07.307Z,0
2016-08-20T00:37:07.284Z,0
2016-08-20T00:38:05.856Z,0
2016-08-20T00:39:06.526Z,0
2016-08-20T00:40:06.492Z,0
2016-08-20T00:41:05.760Z,0
2016-08-20T00:42:06.429Z,0
2016-08-20T00:43:07.097Z,0
2016-08-20T00:44:06.370Z,0
2016-08-20T00:45:07.035Z,0
2016-08-20T00:46:06.307Z,0
2016-08-20T00:47:05.582Z,0
2016-08-20T00:48:06.943Z,0
2016-08-20T00:49:06.907Z,0
2016-08-20T00:50:06.182Z,0
2016-08-20T00:51:06.149Z,0
2016-08-20T00:52:05.425Z,0
2016-08-20T00:53:06.793Z,0
2016-08-20T00:54:05.361Z,0
2016-08-20T00:55:06.725Z,0
2016-08-20T00:56:06.698Z,0
2016-08-20T00:57:05.992Z,0
2016-08-20T00:58:06.631Z,0
2016-08-20T00:59:06.606Z,0
2016-08-20T01:00:06.574Z,0
2016-08-20T01:01:05.839Z,0
2016-08-20T01:02:06.508Z,0
2016-08-20T01:03:05.780Z,0
2016-08-20T01:04:06.451Z,0
2016-08-20T01:05:06.419Z,0
2016-08-20T01:06:06.388Z,0
2016-08-20T01:07:06.354Z,0
2016-08-20T01:08:05.641Z,0
2016-08-20T01:09:05.610Z,0
2016-08-20T01:10:06.263Z,0
2016-08-20T01:11:06.237Z,0
2016-08-20T01:12:04.817Z,0
2016-08-20T01:13:05.476Z,0
2016-08-20T01:14:05.444Z,0
2016-08-20T01:15:06.113Z,0
2016-08-20T01:16:05.378Z,0
2016-08-20T01:17:04.658Z,0
2016-08-20T01:18:05.324Z,0
2016-08-20T01:19:05.293Z,0
2016-08-20T01:20:05.261Z,0
2016-08-20T01:21:05.922Z,0
2016-08-20T01:22:05.900Z,0
2016-08-20T01:23:05.166Z,0
2016-08-20T01:24:04.441Z,0
2016-08-20T01:25:05.803Z,0
2016-08-20T01:26:05.770Z,0
2016-08-20T01:27:04.345Z,0
2016-08-20T01:28:05.015Z,0
2016-08-20T01:29:05.680Z,0
2016-08-20T01:30:04.952Z,0
2016-08-20T01:31:04.230Z,0
2016-08-20T01:32:05.588Z,0
2016-08-20T01:33:04.178Z,0
2016-08-20T01:34:05.525Z,0
2016-08-20T01:35:05.500Z,0
2016-08-20T01:36:05.462Z,0
2016-08-20T01:37:04.739Z,0
2016-08-20T01:38:04.705Z,0
2016-08-20T01:39:05.369Z,0
2016-08-20T01:40:05.345Z,0
2016-08-20T01:41:04.618Z,0
2016-08-20T01:42:03.897Z,0
2016-08-20T01:43:05.253Z,0
2016-08-20T01:44:03.836Z,0
2016-08-20T01:45:04.495Z,0
2016-08-20T01:46:04.456Z,0
2016-08-20T01:47:05.127Z,0
2016-08-20T01:48:03.708Z,0
2016-08-20T01:49:04.373Z,0
2016-08-20T01:50:05.036Z,0
2016-08-20T01:51:04.305Z,0
2016-08-20T01:52:04.976Z,0
2016-08-20T01:53:04.943Z,0
2016-08-20T01:54:03.522Z,0
2016-08-20T01:55:04.183Z,0
2016-08-20T01:56:03.455Z,0
2016-08-20T01:57:04.125Z,0
2016-08-20T01:58:03.401Z,0
2016-08-20T01:59:04.756Z,0
2016-08-20T02:00:04.030Z,0
2016-08-20T02:01:04.005Z,0
2016-08-20T02:02:04.672Z,0
2016-08-20T02:03:03.935Z,0
2016-08-20T02:04:03.211Z,0
2016-08-20T02:05:04.571Z,0
2016-08-20T02:06:03.849Z,0
2016-08-20T02:07:04.514Z,0
2016-08-20T02:08:03.090Z,0
2016-08-20T02:09:03.758Z,0
2016-08-20T02:10:04.422Z,0
2016-08-20T02:11:04.385Z,0
2016-08-20T02:12:03.662Z,0
2016-08-20T02:13:03.637Z,0
2016-08-20T02:14:02.905Z,0
2016-08-20T02:15:03.574Z,0
2016-08-20T02:16:02.842Z,0
2016-08-20T02:17:04.204Z,0
2016-08-20T02:18:03.482Z,0
2016-08-20T02:19:02.754Z,0
2016-08-20T02:20:04.116Z,0
2016-08-20T02:21:02.688Z,0
2016-08-20T02:22:03.370Z,0
2016-08-20T02:23:04.020Z,0
2016-08-20T02:24:03.293Z,0
2016-08-20T02:25:03.260Z,0
2016-08-20T02:26:03.931Z,0
2016-08-20T02:27:03.896Z,0
2016-08-20T02:28:03.171Z,0
2016-08-20T02:29:03.141Z,0
2016-08-20T02:30:03.808Z,0
2016-08-20T02:31:03.781Z,0
2016-08-20T02:32:03.057Z,0
2016-08-20T02:33:03.720Z,0
2016-08-20T02:34:02.981Z,0
2016-08-20T02:35:03.652Z,0
2016-08-20T02:36:02.920Z,0
2016-08-20T02:37:03.603Z,0
2016-08-20T02:38:02.860Z,0
2016-08-20T02:39:02.829Z,0
2016-08-20T02:40:03.511Z,0
2016-08-20T02:41:02.766Z,0
2016-08-20T02:42:02.741Z,0
2016-08-20T02:43:03.407Z,0
2016-08-20T02:44:02.687Z,0
2016-08-20T02:45:02.655Z,0
2016-08-20T02:46:03.368Z,0
2016-08-20T02:47:03.282Z,0
2016-08-20T02:48:01.857Z,0
2016-08-20T02:49:02.544Z,0
2016-08-20T02:50:01.799Z,0
2016-08-20T02:51:02.459Z,0
2016-08-20T02:52:02.429Z,0
2016-08-20T02:53:03.096Z,0
2016-08-20T02:54:02.366Z,0
2016-08-20T02:55:03.035Z,0
2016-08-20T02:56:03.001Z,0
2016-08-20T02:57:01.577Z,0
2016-08-20T02:58:02.938Z,0
2016-08-20T02:59:02.217Z,0
2016-08-20T03:00:02.178Z,0
2016-08-20T03:01:01.466Z,0
2016-08-20T03:02:02.830Z,0
2016-08-20T03:03:02.780Z,0
2016-08-20T03:04:02.753Z,0
2016-08-20T03:05:02.732Z,0
2016-08-20T03:06:01.298Z,0
2016-08-20T03:07:01.976Z,0
2016-08-20T03:08:01.949Z,0
2016-08-20T03:09:01.902Z,0
2016-08-20T03:10:01.877Z,0
2016-08-20T03:11:01.835Z,0
2016-08-20T03:12:02.508Z,0
2016-08-20T03:13:01.778Z,0
2016-08-20T03:14:01.750Z,0
2016-08-20T03:15:01.729Z,0
2016-08-20T03:16:02.375Z,0
2016-08-20T03:17:02.357Z,0
2016-08-20T03:18:01.633Z,0
2016-08-20T03:19:02.299Z,0
2016-08-20T03:20:02.267Z,0
2016-08-20T03:21:01.535Z,0
2016-08-20T03:22:01.525Z,0
2016-08-20T03:23:00.775Z,0
2016-08-20T03:24:00.751Z,0
2016-08-20T03:25:02.115Z,0
2016-08-20T03:26:01.375Z,0
2016-08-20T03:27:00.657Z,0
2016-08-20T03:28:01.319Z,0
2016-08-20T03:29:01.290Z,0
2016-08-20T03:30:01.958Z,0
2016-08-20T03:31:01.917Z,0
2016-08-20T03:32:01.193Z,0
2016-08-20T03:33:00.465Z,0
2016-08-20T03:34:01.829Z,0
2016-08-20T03:35:00.412Z,0
2016-08-20T03:36:01.759Z,0
2016-08-20T03:37:01.735Z,0
2016-08-20T03:38:01.010Z,0
2016-08-20T03:39:00.975Z,0
2016-08-20T03:40:01.643Z,0
2016-08-20T03:41:00.921Z,0
2016-08-20T03:42:00.886Z,0
2016-08-20T03:43:00.159Z,0
2016-08-20T03:44:00.827Z,0
2016-08-20T03:45:00.094Z,0
2016-08-20T03:46:01.450Z,0
2016-08-20T03:47:00.744Z,0
2016-08-20T03:48:01.395Z,0
2016-08-20T03:48:59.981Z,0
2016-08-20T03:50:01.336Z,0
2016-08-20T03:51:00.601Z,0
2016-08-20T03:52:00.576Z,0
2016-08-20T03:52:59.845Z,0
2016-08-20T03:53:59.815Z,0
2016-08-20T03:54:59.787Z,0
2016-08-20T03:56:00.455Z,4
2016-08-20T03:57:00.417Z,4
2016-08-20T03:58:00.385Z,4
2016-08-20T03:59:00.351Z,0
2016-08-20T04:00:00.333Z,4
2016-08-20T04:01:00.290Z,4
2016-08-20T04:02:00.275Z,8
2016-08-20T04:03:14.442Z,8
2016-08-20T04:03:59.506Z,8
2016-08-20T04:05:00.177Z,8
2016-08-20T04:06:00.147Z,12
2016-08-20T04:07:00.811Z,12
2016-08-20T04:08:00.077Z,16
2016-08-20T04:08:59.363Z,20
2016-08-20T04:10:00.026Z,24
2016-08-20T04:10:59.286Z,28
2016-08-20T04:11:59.953Z,32
2016-08-20T04:13:00.624Z,36
2016-08-20T04:14:00.589Z,40
2016-08-20T04:14:59.865Z,48
2016-08-20T04:15:59.825Z,52
2016-08-20T04:16:59.806Z,64
2016-08-20T04:18:00.463Z,72
2016-08-20T04:19:00.432Z,80
2016-08-20T04:20:00.393Z,88
2016-08-20T04:21:00.376Z,100
2016-08-20T04:22:00.347Z,112
2016-08-20T04:23:00.308Z,128
2016-08-20T04:23:59.582Z,140
2016-08-20T04:24:59.549Z,164
2016-08-20T04:25:59.519Z,192
2016-08-20T04:26:59.485Z,212
2016-08-20T04:28:00.145Z,232
2016-08-20T04:28:59.426Z,256
2016-08-20T04:29:59.399Z,288
2016-08-20T04:30:59.363Z,320
2016-08-20T04:31:58.637Z,352
2016-08-20T04:32:59.297Z,396
2016-08-20T04:33:58.574Z,436
2016-08-20T04:34:59.244Z,496
2016-08-20T04:35:59.201Z,560
2016-08-20T04:36:59.866Z,608
2016-08-20T04:37:59.152Z,652
2016-08-20T04:38:59.109Z,708
2016-08-20T04:39:59.784Z,772
2016-08-20T04:40:59.056Z,828
2016-08-20T04:41:59.715Z,896
2016-08-20T04:42:59.681Z,984
2016-08-20T04:43:58.960Z,1068
2016-08-20T04:44:58.927Z,1148
2016-08-20T04:45:58.899Z,1236
2016-08-20T04:46:59.553Z,1324
2016-08-20T04:47:58.827Z,1404
2016-08-20T04:48:58.803Z,1504
2016-08-20T04:49:58.768Z,1612
2016-08-20T04:50:58.044Z,1724
2016-08-20T04:51:58.698Z,1856
2016-08-20T04:52:58.676Z,2008
2016-08-20T04:53:58.644Z,2136
2016-08-20T04:54:58.617Z,2252
2016-08-20T04:55:59.281Z,2372
2016-08-20T04:56:59.247Z,2532
2016-08-20T04:57:58.527Z,2704
2016-08-20T04:58:57.797Z,2856
2016-08-20T04:59:57.760Z,3004
2016-08-20T05:00:58.435Z,3156
2016-08-20T05:01:58.394Z,3304
2016-08-20T05:02:58.361Z,3452
2016-08-20T05:03:59.032Z,3588
2016-08-20T05:04:58.315Z,3700
2016-08-20T05:05:58.269Z,3796
2016-08-20T05:06:58.264Z,3892
2016-08-20T05:07:58.917Z,3980
2016-08-20T05:08:58.184Z,4032
2016-08-20T05:09:58.159Z,4064
2016-08-20T05:10:58.114Z,4132
2016-08-20T05:11:58.799Z,4148
2016-08-20T05:12:58.752Z,4168
2016-08-20T05:13:58.020Z,4228
2016-08-20T05:14:58.691Z,4284
2016-08-20T05:15:57.966Z,4372
2016-08-20T05:16:57.242Z,4584
2016-08-20T05:17:57.206Z,5708
2016-08-20T05:18:57.867Z,8452
2016-08-20T05:19:57.844Z,17824
2016-08-20T05:20:57.823Z,20320
2016-08-20T05:21:58.482Z,12096
2016-08-20T05:22:58.450Z,12928
2016-08-20T05:23:57.728Z,6356
2016-08-20T05:24:57.687Z,6532
2016-08-20T05:25:58.357Z,13992
2016-08-20T05:26:58.326Z,23744
2016-08-20T05:27:56.905Z,26816
2016-08-20T05:28:57.568Z,28512
2016-08-20T05:29:57.533Z,13024
2016-08-20T05:30:56.813Z,7524
2016-08-20T05:31:57.475Z,24160
2016-08-20T05:32:57.450Z,23456
2016-08-20T05:33:58.117Z,20704
2016-08-20T05:34:57.382Z,7612
2016-08-20T05:35:56.669Z,12776
2016-08-20T05:36:56.628Z,7028
2016-08-20T05:37:57.990Z,6528
2016-08-20T05:38:55.877Z,6500
2016-08-20T05:39:57.935Z,7112
2016-08-20T05:40:57.926Z,7876
2016-08-20T05:41:57.216Z,7820
2016-08-20T05:42:57.160Z,7452
2016-08-20T05:43:57.820Z,9724
2016-08-20T05:44:57.788Z,13568
2016-08-20T05:45:57.064Z,13676
2016-08-20T05:46:57.037Z,19968
2016-08-20T05:47:56.311Z,18752
2016-08-20T05:48:57.668Z,16064
2016-08-20T05:49:57.649Z,16000
2016-08-20T05:50:57.617Z,21216
2016-08-20T05:51:56.894Z,19296
2016-08-20T05:52:57.561Z,16416
2016-08-20T05:53:57.530Z,25248
2016-08-20T05:54:56.114Z,38688
2016-08-20T05:55:57.471Z,33280
2016-08-20T05:56:56.748Z,38112
2016-08-20T05:57:57.421Z,20352
2016-08-20T05:58:56.000Z,11820
2016-08-20T05:59:56.665Z,10436
2016-08-20T06:00:56.640Z,9268
2016-08-20T06:01:56.611Z,9040
2016-08-20T06:02:56.601Z,9060
2016-08-20T06:03:57.259Z,9152
2016-08-20T06:04:56.529Z,8296
2016-08-20T06:05:57.197Z,7728
2016-08-20T06:06:56.472Z,8156
2016-08-20T06:07:57.156Z,9640
2016-08-20T06:08:56.435Z,41728
2016-08-20T06:09:57.093Z,41888
2016-08-20T06:10:56.368Z,41408
2016-08-20T06:11:56.611Z,42016
2016-08-20T06:12:56.309Z,44064
2016-08-20T06:13:56.285Z,45376
2016-08-20T06:14:56.257Z,50528
2016-08-20T06:15:56.232Z,52224
2016-08-20T06:16:56.202Z,50176
2016-08-20T06:17:56.874Z,44672
2016-08-20T06:18:56.841Z,46080
2016-08-20T06:19:56.819Z,44800
2016-08-20T06:20:56.810Z,46144
2016-08-20T06:21:56.075Z,48352
2016-08-20T06:22:56.748Z,50144
2016-08-20T06:23:56.713Z,51200
2016-08-20T06:24:55.301Z,51872
2016-08-20T06:25:56.668Z,51008
2016-08-20T06:26:55.944Z,52896
2016-08-20T06:27:56.631Z,53632
2016-08-20T06:28:55.204Z,51744
2016-08-20T06:29:55.874Z,51712
2016-08-20T06:30:56.546Z,55072
2016-08-20T06:31:56.528Z,54848
2016-08-20T06:32:56.516Z,50656
2016-08-20T06:33:56.479Z,54912
2016-08-20T06:34:55.758Z,57184
2016-08-20T06:35:56.432Z,57792
2016-08-20T06:36:55.713Z,56352
2016-08-20T06:37:55.691Z,51328
2016-08-20T06:38:56.357Z,50976
2016-08-20T06:39:56.338Z,55136
2016-08-20T06:40:56.307Z,60064
2016-08-20T06:41:55.609Z,65120
2016-08-20T06:42:56.281Z,66144
2016-08-20T06:43:54.851Z,69760
2016-08-20T06:44:54.132Z,72064
2016-08-20T06:45:54.806Z,72896
2016-08-20T06:46:55.483Z,77024
2016-08-20T06:47:54.770Z,71200
2016-08-20T06:48:54.747Z,51968
2016-08-20T06:49:54.732Z,50784
2016-08-20T06:50:56.086Z,62688
2016-08-20T06:51:55.367Z,57088
2016-08-20T06:52:56.044Z,53440
2016-08-20T06:53:53.930Z,65344
2016-08-20T06:54:55.297Z,69184
2016-08-20T06:55:53.884Z,66176
2016-08-20T06:56:55.964Z,74016
2016-08-20T06:57:55.237Z,75680
2016-08-20T06:58:55.915Z,78848
2016-08-20T06:59:55.883Z,79712
2016-08-20T07:00:54.482Z,83008
2016-08-20T07:01:55.150Z,85152
2016-08-20T07:02:55.819Z,81120
2016-08-20T07:03:55.797Z,84960
2016-08-20T07:04:54.386Z,87264
2016-08-20T07:05:55.768Z,88736
2016-08-20T07:06:55.737Z,94816
2016-08-20T07:07:55.725Z,92224
2016-08-20T07:08:55.697Z,62912
2016-08-20T07:09:54.979Z,72128
2016-08-20T07:10:55.662Z,36480
2016-08-20T07:11:54.936Z,31904
2016-08-20T07:12:55.630Z,29856
2016-08-20T07:13:55.588Z,29920
2016-08-20T07:14:54.180Z,38080
2016-08-20T07:15:55.553Z,39808
2016-08-20T07:16:55.532Z,34560
2016-08-20T07:17:54.821Z,46240
2016-08-20T07:18:55.483Z,80480
2016-08-20T07:19:55.468Z,80768
2016-08-20T07:20:55.459Z,51040
2016-08-20T07:21:54.731Z,61120
2016-08-20T07:22:54.708Z,64896
2016-08-20T07:23:54.699Z,77376
2016-08-20T07:24:54.672Z,44768
2016-08-20T07:25:55.346Z,41408
2016-08-20T07:26:54.631Z,28128
2016-08-20T07:27:55.307Z,25216
2016-08-20T07:28:55.298Z,69600
2016-08-20T07:29:53.877Z,30496
2016-08-20T07:30:55.257Z,20864
2016-08-20T07:31:55.224Z,20352
2016-08-20T07:32:54.502Z,20960
2016-08-20T07:33:55.192Z,24288
2016-08-20T07:34:55.165Z,22432
2016-08-20T07:35:54.447Z,22400
2016-08-20T07:36:55.123Z,21184
2016-08-20T07:37:55.101Z,18368
2016-08-20T07:38:54.377Z,17728
2016-08-20T07:39:54.359Z,16452
2016-08-20T07:40:54.340Z,15312
2016-08-20T07:41:54.325Z,14728
2016-08-20T07:42:54.991Z,13924
2016-08-20T07:43:54.968Z,13528
2016-08-20T07:44:54.257Z,13164
2016-08-20T07:45:54.916Z,13156
2016-08-20T07:46:54.198Z,13444
2016-08-20T07:47:54.887Z,13796
2016-08-20T07:48:54.876Z,13720
2016-08-20T07:49:54.134Z,13248
2016-08-20T07:50:54.812Z,13016
2016-08-20T07:51:54.103Z,13432
2016-08-20T07:52:54.766Z,13656
2016-08-20T07:53:54.743Z,13676
2016-08-20T07:54:54.714Z,13748
2016-08-20T07:55:54.704Z,13728
2016-08-20T07:56:54.670Z,13800
2016-08-20T07:57:54.645Z,13724
2016-08-20T07:58:54.626Z,13492
2016-08-20T07:59:54.606Z,13192
2016-08-20T08:00:53.187Z,12880
2016-08-20T08:01:54.549Z,12552
2016-08-20T08:02:54.525Z,12448
2016-08-20T08:03:54.503Z,12520
2016-08-20T08:04:54.478Z,12656
2016-08-20T08:05:54.446Z,12864
2016-08-20T08:06:53.037Z,13312
2016-08-20T08:07:53.708Z,13616
2016-08-20T08:08:54.066Z,13964
2016-08-20T08:09:53.656Z,14284
2016-08-20T08:10:54.334Z,14512
2016-08-20T08:11:54.305Z,14844
2016-08-20T08:12:54.282Z,14928
2016-08-20T08:13:52.861Z,15060
2016-08-20T08:14:54.237Z,15356
2016-08-20T08:15:54.205Z,15684
2016-08-20T08:16:54.178Z,15632
2016-08-20T08:17:53.456Z,15300
2016-08-20T08:18:54.127Z,15476
2016-08-20T08:19:54.107Z,16212
2016-08-20T08:20:54.083Z,17632
2016-08-20T08:21:54.059Z,19072
2016-08-20T08:22:53.332Z,19712
2016-08-20T08:23:54.009Z,20160
2016-08-20T08:24:53.975Z,20032
2016-08-20T08:25:53.956Z,19488
2016-08-20T08:26:53.931Z,18880
2016-08-20T08:27:52.519Z,18304
2016-08-20T08:28:53.877Z,17024
2016-08-20T08:29:53.858Z,16096
2016-08-20T08:30:53.133Z,15672
2016-08-20T08:31:53.817Z,15368
2016-08-20T08:32:53.094Z,14920
2016-08-20T08:33:53.755Z,14476
2016-08-20T08:34:53.043Z,14288
2016-08-20T08:35:52.309Z,14400
2016-08-20T08:36:52.985Z,14876
2016-08-20T08:37:52.968Z,16072
2016-08-20T08:38:53.624Z,17856
2016-08-20T08:39:52.215Z,19552
2016-08-20T08:40:52.187Z,21344
2016-08-20T08:41:52.169Z,23488
2016-08-20T08:42:52.834Z,25376
2016-08-20T08:43:52.822Z,27872
2016-08-20T08:44:53.496Z,28416
2016-08-20T08:45:53.462Z,34272
2016-08-20T08:46:53.448Z,32032
2016-08-20T08:47:52.718Z,40384
2016-08-20T08:48:53.392Z,27584
2016-08-20T08:49:51.964Z,26880
2016-08-20T08:50:52.640Z,23136
2016-08-20T08:51:52.623Z,22176
2016-08-20T08:52:52.597Z,21792
2016-08-20T08:53:52.582Z,22240
2016-08-20T08:54:52.543Z,22624
2016-08-20T08:55:52.519Z,21216
2016-08-20T08:56:53.248Z,19392
2016-08-20T08:57:53.168Z,17760
2016-08-20T08:58:51.752Z,16392
2016-08-20T08:59:53.122Z,15168
2016-08-20T09:00:52.398Z,14136
2016-08-20T09:01:52.376Z,13268
2016-08-20T09:02:53.063Z,12628
2016-08-20T09:03:53.018Z,11948
2016-08-20T09:04:52.996Z,11504
2016-08-20T09:05:52.971Z,11280
2016-08-20T09:06:52.259Z,11424
2016-08-20T09:07:52.231Z,12152
2016-08-20T09:08:51.517Z,13924
2016-08-20T09:09:52.883Z,13888
2016-08-20T09:10:52.155Z,15272
2016-08-20T09:11:52.141Z,15740
2016-08-20T09:12:52.104Z,15048
2016-08-20T09:13:52.083Z,15172
2016-08-20T09:14:52.760Z,15648
2016-08-20T09:15:52.743Z,17248
2016-08-20T09:16:52.709Z,17472
2016-08-20T09:17:52.005Z,16588
2016-08-20T09:18:52.759Z,16008
2016-08-20T09:19:51.933Z,15924
2016-08-20T09:20:51.917Z,15752
2016-08-20T09:21:51.892Z,15484
2016-08-20T09:22:51.868Z,15140
2016-08-20T09:23:51.846Z,14736
2016-08-20T09:24:51.121Z,14148
2016-08-20T09:25:52.485Z,13492
2016-08-20T09:26:51.761Z,12808
2016-08-20T09:27:51.749Z,12208
2016-08-20T09:28:52.417Z,11692
2016-08-20T09:29:51.695Z,11144
2016-08-20T09:30:52.362Z,10540
2016-08-20T09:31:51.641Z,9940
2016-08-20T09:32:52.313Z,9276
2016-08-20T09:33:51.606Z,8732
2016-08-20T09:34:51.567Z,8292
2016-08-20T09:35:52.233Z,7876
2016-08-20T09:36:50.817Z,7460
2016-08-20T09:37:52.203Z,7120
2016-08-20T09:38:51.466Z,6896
2016-08-20T09:39:51.441Z,6756
2016-08-20T09:40:51.411Z,6676
2016-08-20T09:41:52.083Z,6588
2016-08-20T09:42:52.064Z,6460
2016-08-20T09:43:52.037Z,6268
2016-08-20T09:44:52.011Z,6204
2016-08-20T09:45:51.288Z,6200
2016-08-20T09:46:51.963Z,6088
2016-08-20T09:47:51.934Z,5988
2016-08-20T09:48:51.212Z,5884
2016-08-20T09:49:51.885Z,5716
2016-08-20T09:50:51.854Z,5672
2016-08-20T09:51:51.838Z,5768
2016-08-20T09:52:51.811Z,6132
2016-08-20T09:53:51.778Z,6560
2016-08-20T09:54:51.753Z,6988
2016-08-20T09:55:51.725Z,7108
2016-08-20T09:56:51.706Z,7180
2016-08-20T09:57:50.281Z,7280
2016-08-20T09:58:51.649Z,7264
2016-08-20T09:59:51.624Z,7136
2016-08-20T10:00:51.618Z,6936
2016-08-20T10:01:50.878Z,6760
2016-08-20T10:02:51.562Z,6508
2016-08-20T10:03:50.818Z,6364
2016-08-20T10:04:50.797Z,6236
2016-08-20T10:05:50.767Z,6068
2016-08-20T10:06:51.441Z,5864
2016-08-20T10:07:50.719Z,5696
2016-08-20T10:08:50.699Z,5652
2016-08-20T10:09:51.372Z,5736
2016-08-20T10:10:51.349Z,5836
2016-08-20T10:11:50.611Z,5928
2016-08-20T10:12:51.299Z,6024
2016-08-20T10:13:51.258Z,6088
2016-08-20T10:14:50.533Z,6156
2016-08-20T10:15:51.205Z,6240
2016-08-20T10:16:51.183Z,6420
2016-08-20T10:17:50.454Z,6652
2016-08-20T10:18:50.426Z,7012
2016-08-20T10:19:51.104Z,7500
2016-08-20T10:20:51.069Z,7976
2016-08-20T10:21:51.044Z,8404
2016-08-20T10:22:50.322Z,8724
2016-08-20T10:23:50.992Z,8868
2016-08-20T10:24:50.264Z,8792
2016-08-20T10:25:50.938Z,8520
2016-08-20T10:26:50.217Z,8252
2016-08-20T10:27:49.486Z,7964
2016-08-20T10:28:50.175Z,7752
2016-08-20T10:29:49.438Z,7652
2016-08-20T10:30:49.409Z,7656
2016-08-20T10:31:50.081Z,7712
2016-08-20T10:32:50.758Z,7824
2016-08-20T10:33:50.029Z,7924
2016-08-20T10:34:50.008Z,7896
2016-08-20T10:35:50.688Z,7860
2016-08-20T10:37:49.915Z,7760
2016-08-20T10:38:50.599Z,7836
2016-08-20T10:39:50.572Z,7920
2016-08-20T10:40:50.543Z,7828
2016-08-20T10:41:49.122Z,7532
2016-08-20T10:42:50.493Z,7084
2016-08-20T10:43:49.767Z,6720
2016-08-20T10:44:50.440Z,6448
2016-08-20T10:45:49.712Z,6212
2016-08-20T10:46:48.289Z,6056
2016-08-20T10:47:50.356Z,5932
2016-08-20T10:48:50.330Z,5888
2016-08-20T10:49:49.603Z,5924
2016-08-20T10:50:50.270Z,6012
2016-08-20T10:51:50.246Z,6060
2016-08-20T10:52:50.223Z,6104
2016-08-20T10:53:49.499Z,6212
2016-08-20T10:54:50.158Z,6428
2016-08-20T10:55:50.159Z,6708
2016-08-20T10:56:49.410Z,6980
2016-08-20T10:57:49.383Z,7220
2016-08-20T10:58:50.061Z,7452
2016-08-20T10:59:49.329Z,7684
2016-08-20T11:00:50.000Z,7960
2016-08-20T11:01:49.976Z,8232
2016-08-20T11:02:48.554Z,8440
2016-08-20T11:03:49.931Z,8632
2016-08-20T11:04:48.498Z,8820
2016-08-20T11:05:48.469Z,9016
2016-08-20T11:06:49.843Z,9232
2016-08-20T11:07:49.139Z,9424
2016-08-20T11:08:49.085Z,9600
2016-08-20T11:09:49.064Z,9756
2016-08-20T11:10:48.341Z,9888
2016-08-20T11:11:49.705Z,9980
2016-08-20T11:12:48.982Z,10056
2016-08-20T11:13:49.660Z,10092
2016-08-20T11:14:48.929Z,10044
2016-08-20T11:15:49.598Z,9864
2016-08-20T11:16:48.178Z,9576
2016-08-20T11:17:47.456Z,9228
2016-08-20T11:18:49.521Z,8848
2016-08-20T11:19:49.492Z,8520
2016-08-20T11:20:48.767Z,8220
2016-08-20T11:21:49.442Z,7948
2016-08-20T11:22:48.712Z,7740
2016-08-20T11:23:47.992Z,7576
2016-08-20T11:24:48.668Z,7424
2016-08-20T11:25:48.655Z,7276
2016-08-20T11:26:48.607Z,7128
2016-08-20T11:27:48.594Z,6976
2016-08-20T11:28:48.553Z,6824
2016-08-20T11:29:47.140Z,6692
2016-08-20T11:30:48.497Z,6608
2016-08-20T11:31:49.169Z,6596
2016-08-20T11:32:47.758Z,6684
2016-08-20T11:33:48.425Z,6796
2016-08-20T11:34:48.394Z,6892
2016-08-20T11:35:49.080Z,6940
2016-08-20T11:36:49.034Z,6976
2016-08-20T11:37:49.012Z,7040
2016-08-20T11:38:48.299Z,7148
2016-08-20T11:39:48.971Z,7224
2016-08-20T11:40:48.928Z,7204
2016-08-20T11:41:47.513Z,7060
2016-08-20T11:42:47.482Z,6812
2016-08-20T11:43:47.457Z,6532
2016-08-20T11:44:48.141Z,6232
2016-08-20T11:45:48.797Z,5996
2016-08-20T11:46:48.075Z,5864
2016-08-20T11:47:48.045Z,5820
2016-08-20T11:48:48.707Z,5820
2016-08-20T11:49:48.685Z,5816
2016-08-20T11:50:48.663Z,5780
2016-08-20T11:51:48.634Z,5712
2016-08-20T11:52:47.919Z,5656
2016-08-20T11:53:47.890Z,5620
2016-08-20T11:54:48.554Z,5644
2016-08-20T11:55:47.827Z,5744
2016-08-20T11:56:47.905Z,5856
2016-08-20T11:57:47.775Z,6020
2016-08-20T11:58:48.448Z,6280
2016-08-20T11:59:48.429Z,6748
2016-08-20T12:00:47.693Z,7184
2016-08-20T12:01:48.358Z,7420
2016-08-20T12:02:48.333Z,7536
2016-08-20T12:03:48.306Z,7744
2016-08-20T12:04:47.578Z,8144
2016-08-20T12:05:48.269Z,8668
2016-08-20T12:06:47.533Z,9140
2016-08-20T12:07:46.807Z,9448
2016-08-20T12:08:46.776Z,9376
2016-08-20T12:09:47.454Z,8948
2016-08-20T12:10:48.122Z,8456
2016-08-20T12:11:47.395Z,7980
2016-08-20T12:12:48.066Z,7808
2016-08-20T12:13:48.032Z,7844
2016-08-20T12:14:47.317Z,7968
2016-08-20T12:15:46.588Z,8216
2016-08-20T12:16:47.954Z,8376
2016-08-20T12:17:46.533Z,8552
2016-08-20T12:18:47.209Z,8784
2016-08-20T12:19:47.875Z,9232
2016-08-20T12:20:47.853Z,9836
2016-08-20T12:21:47.822Z,10336
2016-08-20T12:22:47.785Z,10496
2016-08-20T12:23:47.767Z,10560
2016-08-20T12:24:47.738Z,10640
2016-08-20T12:25:45.617Z,10644
2016-08-20T12:26:46.988Z,10800
2016-08-20T12:27:47.656Z,10856
2016-08-20T12:28:46.937Z,10756
2016-08-20T12:29:46.215Z,10460
2016-08-20T12:30:46.186Z,10032
2016-08-20T12:31:47.547Z,9724
2016-08-20T12:32:46.132Z,9448
2016-08-20T12:33:46.100Z,9216
2016-08-20T12:34:46.769Z,9012
2016-08-20T12:35:46.744Z,8924
2016-08-20T12:36:47.428Z,8844
2016-08-20T12:37:46.703Z,8756
2016-08-20T12:38:47.369Z,8664
2016-08-20T12:39:47.333Z,8564
2016-08-20T12:40:47.315Z,8472
2016-08-20T12:41:46.591Z,8372
2016-08-20T12:42:46.554Z,8332
2016-08-20T12:43:47.223Z,8300
2016-08-20T12:44:46.498Z,8224
2016-08-20T12:45:46.469Z,8128
2016-08-20T12:46:46.447Z,8152
2016-08-20T12:47:45.024Z,8260
2016-08-20T12:48:47.087Z,8368
2016-08-20T12:49:47.057Z,8376
2016-08-20T12:50:46.524Z,8172
2016-08-20T12:51:46.315Z,7856
2016-08-20T12:52:46.981Z,7652
2016-08-20T12:53:46.956Z,7600
2016-08-20T12:54:46.233Z,7692
2016-08-20T12:55:45.513Z,7848
2016-08-20T12:56:46.876Z,7952
2016-08-20T12:57:45.447Z,8096
2016-08-20T12:58:46.123Z,8212
2016-08-20T12:59:46.103Z,8216
2016-08-20T13:00:45.374Z,8152
2016-08-20T13:01:46.754Z,8152
2016-08-20T13:02:46.706Z,8224
2016-08-20T13:03:45.515Z,8440
2016-08-20T13:04:45.261Z,8740
2016-08-20T13:05:46.628Z,9160
2016-08-20T13:06:45.207Z,9580
2016-08-20T13:07:46.580Z,9936
2016-08-20T13:08:45.151Z,10144
2016-08-20T13:09:45.125Z,10228
2016-08-20T13:10:44.406Z,9992
2016-08-20T13:11:45.766Z,9244
2016-08-20T13:12:44.355Z,8372
2016-08-20T13:13:46.415Z,7628
2016-08-20T13:14:45.687Z,7008
2016-08-20T13:15:45.660Z,6596
2016-08-20T13:16:45.634Z,6332
2016-08-20T13:17:45.609Z,6240
2016-08-20T13:18:44.885Z,6264
2016-08-20T13:19:46.259Z,6372
2016-08-20T13:20:46.227Z,6528
2016-08-20T13:21:46.201Z,6548
2016-08-20T13:22:46.172Z,6396
2016-08-20T13:23:45.445Z,6264
2016-08-20T13:24:46.113Z,6224
2016-08-20T13:25:46.096Z,6156
2016-08-20T13:26:46.065Z,6036
2016-08-20T13:27:45.332Z,5896
2016-08-20T13:28:46.003Z,5760
2016-08-20T13:29:45.290Z,5760
2016-08-20T13:30:45.952Z,5888
2016-08-20T13:31:45.926Z,6024
2016-08-20T13:32:45.895Z,6068
2016-08-20T13:33:45.878Z,5944
2016-08-20T13:34:45.836Z,5736
2016-08-20T13:35:45.135Z,5620
2016-08-20T13:36:44.388Z,5600